createdAt,value
2018-11-07T00:01:59.263Z,11.61
2018-11-07T00:04:27.819Z,11.56
2018-11-07T00:06:56.500Z,11.54
2018-11-07T00:09:24.935Z,11.53
2018-11-07T00:11:53.513Z,11.49
2018-11-07T00:14:22.066Z,11.43
2018-11-07T00:16:50.721Z,11.35
2018-11-07T00:19:19.330Z,11.25
2018-11-07T00:21:47.829Z,11.15
2018-11-07T00:24:16.542Z,11.05
2018-11-07T00:26:45.129Z,10.94
2018-11-07T00:29:14.720Z,10.83
2018-11-07T00:31:43.216Z,10.71
2018-11-07T00:34:13.346Z,10.65
2018-11-07T00:36:41.893Z,10.57
2018-11-07T00:39:11.219Z,10.50
2018-11-07T00:41:39.715Z,10.53
2018-11-07T00:44:08.737Z,10.54
2018-11-07T00:46:37.279Z,10.52
2018-11-07T00:49:07.536Z,10.48
2018-11-07T00:51:36.119Z,10.45
2018-11-07T00:54:04.730Z,10.44
2018-11-07T00:56:33.279Z,10.44
2018-11-07T00:59:01.810Z,10.40
2018-11-07T01:01:30.258Z,10.41
2018-11-07T01:03:58.826Z,10.45
2018-11-07T01:06:27.309Z,10.46
2018-11-07T01:08:55.992Z,10.49
2018-11-07T01:11:24.813Z,10.47
2018-11-07T01:13:53.390Z,10.42
2018-11-07T01:16:22.484Z,10.40
2018-11-07T01:18:51.001Z,10.36
2018-11-07T01:21:19.574Z,10.33
2018-11-07T01:23:48.061Z,10.27
2018-11-07T01:26:16.646Z,10.25
2018-11-07T01:28:45.388Z,10.26
2018-11-07T01:31:13.998Z,10.24
2018-11-07T01:33:42.722Z,10.26
2018-11-07T01:36:11.259Z,10.27
2018-11-07T01:38:40.090Z,10.35
2018-11-07T01:41:08.627Z,10.39
2018-11-07T01:43:37.026Z,10.41
2018-11-07T01:46:05.723Z,10.47
2018-11-07T01:48:34.214Z,10.49
2018-11-07T01:51:02.740Z,10.51
2018-11-07T01:53:31.289Z,10.51
2018-11-07T01:55:59.837Z,10.50
2018-11-07T01:58:28.384Z,10.54
2018-11-07T02:00:56.991Z,10.54
2018-11-07T02:03:25.450Z,10.58
2018-11-07T02:05:54.041Z,10.62
2018-11-07T02:08:51.189Z,10.61
2018-11-07T02:11:23.057Z,10.64
2018-11-07T02:13:51.662Z,10.61
2018-11-07T02:16:20.205Z,10.66
2018-11-07T02:18:48.784Z,10.64
2018-11-07T02:21:17.640Z,10.65
2018-11-07T02:23:46.229Z,10.64
2018-11-07T02:26:14.883Z,10.65
2018-11-07T02:28:44.419Z,10.67
2018-11-07T02:31:12.991Z,10.67
2018-11-07T02:33:41.441Z,10.69
2018-11-07T02:36:09.896Z,10.68
2018-11-07T02:38:38.606Z,10.70
2018-11-07T02:41:07.459Z,10.71
2018-11-07T02:43:35.913Z,10.70
2018-11-07T02:46:04.524Z,10.70
2018-11-07T02:48:33.179Z,10.71
2018-11-07T02:51:01.742Z,10.69
2018-11-07T02:53:30.247Z,10.70
2018-11-07T02:55:58.810Z,10.69
2018-11-07T02:58:27.600Z,10.67
2018-11-07T03:00:56.199Z,10.65
2018-11-07T03:03:24.857Z,10.62
2018-11-07T03:05:55.053Z,10.60
2018-11-07T03:08:23.759Z,10.51
2018-11-07T03:10:52.359Z,10.51
2018-11-07T03:13:20.846Z,10.45
2018-11-07T03:15:49.433Z,10.39
2018-11-07T03:18:18.093Z,10.37
2018-11-07T03:20:46.816Z,10.38
2018-11-07T03:23:15.261Z,10.41
2018-11-07T03:25:43.817Z,10.42
2018-11-07T03:28:12.384Z,10.42
2018-11-07T03:30:41.989Z,10.48
2018-11-07T03:33:10.538Z,10.47
2018-11-07T03:35:39.147Z,10.45
2018-11-07T03:38:08.747Z,10.46
2018-11-07T03:40:37.329Z,10.44
2018-11-07T03:43:06.287Z,10.41
2018-11-07T03:45:40.101Z,10.41
2018-11-07T03:48:08.626Z,10.38
2018-11-07T03:50:37.227Z,10.32
2018-11-07T03:53:06.283Z,10.26
2018-11-07T03:55:34.878Z,10.18
2018-11-07T03:58:03.399Z,10.11
2018-11-07T04:00:31.928Z,10.06
2018-11-07T04:03:00.471Z,10.02
2018-11-07T04:05:29.247Z,9.98
2018-11-07T04:07:57.802Z,9.95
2018-11-07T04:10:26.425Z,9.91
2018-11-07T04:12:54.977Z,9.86
2018-11-07T04:15:23.557Z,9.82
2018-11-07T04:17:52.076Z,9.79
2018-11-07T04:20:21.886Z,9.75
2018-11-07T04:22:50.414Z,9.72
2018-11-07T04:25:18.970Z,9.69
2018-11-07T04:27:47.620Z,9.64
2018-11-07T04:30:16.165Z,9.62
2018-11-07T04:32:44.785Z,9.59
2018-11-07T04:35:14.327Z,9.59
2018-11-07T04:37:43.163Z,9.60
2018-11-07T04:47:00.334Z,9.57
2018-11-07T04:49:28.950Z,9.53
2018-11-07T04:51:57.633Z,9.55
2018-11-07T04:54:26.182Z,9.53
2018-11-07T04:56:55.077Z,9.52
2018-11-07T04:59:23.542Z,9.52
2018-11-07T05:01:52.127Z,9.51
2018-11-07T05:04:20.621Z,9.52
2018-11-07T05:06:49.206Z,9.51
2018-11-07T05:09:17.639Z,9.48
2018-11-07T05:11:46.372Z,9.44
2018-11-07T05:14:14.846Z,9.41
2018-11-07T05:16:43.514Z,9.40
2018-11-07T05:19:13.052Z,9.41
2018-11-07T05:21:41.620Z,9.47
2018-11-07T05:24:10.109Z,9.48
2018-11-07T05:26:38.648Z,9.46
2018-11-07T05:29:07.203Z,9.50
2018-11-07T05:31:35.747Z,9.55
2018-11-07T05:34:04.394Z,9.60
2018-11-07T05:36:32.987Z,9.66
2018-11-07T05:39:01.444Z,9.73
2018-11-07T05:41:30.086Z,9.86
2018-11-07T05:43:58.593Z,9.89
2018-11-07T05:46:27.168Z,9.96
2018-11-07T05:48:56.704Z,10.06
2018-11-07T05:51:26.301Z,10.10
2018-11-07T05:53:55.190Z,10.15
2018-11-07T05:56:24.079Z,10.17
2018-11-07T05:58:53.167Z,10.23
2018-11-07T06:01:21.797Z,10.24
2018-11-07T06:03:50.458Z,10.23
2018-11-07T06:06:19.105Z,10.20
2018-11-07T06:08:47.574Z,10.20
2018-11-07T06:11:17.250Z,10.19
2018-11-07T06:13:45.804Z,10.15
2018-11-07T06:16:14.361Z,10.11
2018-11-07T06:18:43.069Z,10.07
2018-11-07T06:21:12.155Z,10.05
2018-11-07T06:23:40.697Z,10.02
2018-11-07T06:26:09.719Z,10.01
2018-11-07T06:28:38.220Z,10.00
2018-11-07T06:31:06.916Z,9.98
2018-11-07T06:33:35.382Z,9.98
2018-11-07T06:36:04.135Z,10.01
2018-11-07T06:38:32.606Z,10.02
2018-11-07T06:41:01.241Z,10.05
2018-11-07T06:43:29.781Z,10.09
2018-11-07T06:45:58.406Z,10.14
2018-11-07T06:48:28.067Z,10.21
2018-11-07T06:50:58.292Z,10.27
2018-11-07T06:53:26.925Z,10.40
2018-11-07T06:55:55.508Z,10.48
2018-11-07T06:58:24.094Z,10.56
2018-11-07T07:00:52.767Z,10.67
2018-11-07T07:03:21.320Z,10.79
2018-11-07T07:05:49.883Z,10.91
2018-11-07T07:08:18.541Z,10.99
2018-11-07T07:10:46.959Z,11.06
2018-11-07T07:13:15.817Z,11.18
2018-11-07T07:15:44.426Z,11.31
2018-11-07T07:18:13.162Z,11.39
2018-11-07T07:20:41.687Z,11.52
2018-11-07T07:23:10.206Z,11.62
2018-11-07T07:25:39.972Z,11.71
2018-11-07T07:28:08.517Z,11.79
2018-11-07T07:30:37.117Z,11.88
2018-11-07T07:33:05.725Z,11.94
2018-11-07T07:35:34.263Z,12.02
2018-11-07T07:38:02.927Z,12.10
2018-11-07T07:40:31.519Z,12.18
2018-11-07T07:42:59.993Z,12.25
2018-11-07T07:45:28.492Z,12.34
2018-11-07T07:47:57.104Z,12.40
2018-11-07T07:50:25.665Z,12.46
2018-11-07T07:52:54.208Z,12.54
2018-11-07T07:55:22.838Z,12.62
2018-11-07T07:57:51.377Z,12.69
2018-11-07T08:00:20.933Z,12.75
2018-11-07T08:02:50.716Z,12.83
2018-11-07T08:05:19.285Z,12.89
2018-11-07T08:07:48.298Z,12.97
2018-11-07T08:10:18.805Z,13.04
2018-11-07T08:12:47.868Z,13.13
2018-11-07T08:15:17.148Z,13.22
2018-11-07T08:17:46.397Z,13.28
2018-11-07T08:20:16.055Z,13.37
2018-11-07T08:22:45.431Z,13.46
2018-11-07T08:25:14.000Z,13.55
2018-11-07T08:27:42.776Z,13.60
2018-11-07T08:30:13.667Z,13.71
2018-11-07T08:32:42.277Z,13.80
2018-11-07T08:35:12.222Z,13.87
2018-11-07T08:37:41.581Z,13.95
2018-11-07T08:40:12.578Z,14.02
2018-11-07T08:42:41.368Z,14.10
2018-11-07T08:45:11.347Z,14.15
2018-11-07T08:47:40.047Z,14.23
2018-11-07T08:50:10.996Z,14.34
2018-11-07T08:52:41.112Z,14.45
2018-11-07T08:55:12.114Z,14.54
2018-11-07T08:57:40.648Z,14.64
2018-11-07T09:00:11.709Z,14.70
2018-11-07T09:02:40.708Z,14.82
2018-11-07T09:05:09.686Z,14.86
2018-11-07T09:07:38.175Z,14.95
2018-11-07T09:10:09.379Z,15.06
2018-11-07T09:12:38.141Z,15.19
2018-11-07T09:15:08.898Z,15.30
2018-11-07T09:17:37.615Z,15.39
2018-11-07T09:20:07.481Z,15.52
2018-11-07T09:22:35.978Z,15.55
2018-11-07T09:25:04.727Z,15.64
2018-11-07T09:27:33.314Z,15.73
2018-11-07T09:30:01.937Z,15.82
2018-11-07T09:32:30.577Z,15.89
2018-11-07T09:35:00.354Z,15.96
2018-11-07T09:37:28.885Z,16.02
2018-11-07T09:39:57.477Z,16.06
2018-11-07T09:42:25.999Z,16.14
2018-11-07T09:44:54.487Z,16.22
2018-11-07T09:47:23.049Z,16.30
2018-11-07T09:49:51.806Z,16.35
2018-11-07T09:52:21.325Z,16.43
2018-11-07T09:54:49.898Z,16.49
2018-11-07T09:57:18.446Z,16.54
2018-11-07T09:59:46.942Z,16.57
2018-11-07T10:02:15.436Z,16.59
2018-11-07T10:04:44.300Z,16.66
2018-11-07T10:07:12.830Z,16.70
2018-11-07T10:09:41.310Z,16.75
2018-11-07T10:12:09.814Z,16.77
2018-11-07T10:14:38.398Z,16.84
2018-11-07T10:17:06.823Z,16.92
2018-11-07T10:19:35.359Z,16.97
2018-11-07T10:22:03.925Z,17.01
2018-11-07T10:24:32.431Z,17.07
2018-11-07T10:27:01.200Z,17.09
2018-11-07T10:29:30.011Z,17.12
2018-11-07T10:31:58.572Z,17.15
2018-11-07T10:34:27.124Z,17.22
2018-11-07T10:36:55.814Z,17.28
2018-11-07T10:39:24.268Z,17.39
2018-11-07T10:41:53.070Z,17.50
2018-11-07T10:44:21.665Z,17.57
2018-11-07T10:46:50.567Z,17.66
2018-11-07T10:49:19.062Z,17.71
2018-11-07T10:51:47.751Z,17.74
2018-11-07T10:54:17.096Z,17.86
2018-11-07T10:56:45.615Z,17.93
2018-11-07T10:59:14.157Z,17.97
2018-11-07T11:01:48.047Z,17.99
2018-11-07T11:04:17.169Z,18.04
2018-11-07T11:06:45.793Z,18.16
2018-11-07T11:09:14.493Z,18.26
2018-11-07T11:11:43.465Z,18.33
2018-11-07T11:14:12.239Z,18.44
2018-11-07T11:16:41.689Z,18.55
2018-11-07T11:19:10.138Z,18.62
2018-11-07T11:21:38.683Z,18.68
2018-11-07T11:24:07.373Z,18.80
2018-11-07T11:26:35.788Z,18.87
2018-11-07T11:29:04.382Z,19.06
2018-11-07T11:31:33.053Z,19.18
2018-11-07T11:34:01.796Z,19.43
2018-11-07T11:36:30.547Z,19.79
2018-11-07T11:38:59.095Z,20.31
2018-11-07T11:41:27.830Z,20.75
2018-11-07T11:43:56.590Z,21.09
2018-11-07T11:46:25.290Z,21.47
2018-11-07T11:48:53.802Z,21.80
2018-11-07T11:51:22.563Z,22.26
2018-11-07T11:53:51.220Z,22.59
2018-11-07T11:56:19.909Z,22.75
2018-11-07T11:58:50.652Z,23.08
2018-11-07T12:01:19.255Z,23.32
2018-11-07T12:03:47.959Z,23.49
2018-11-07T12:06:16.681Z,23.87
2018-11-07T12:08:45.257Z,24.14
2018-11-07T12:11:13.840Z,24.16
2018-11-07T12:13:42.378Z,24.24
2018-11-07T12:16:11.128Z,24.25
2018-11-07T12:18:40.509Z,24.33
2018-11-07T12:21:09.008Z,24.43
2018-11-07T12:23:38.556Z,24.79
2018-11-07T12:26:07.180Z,25.07
2018-11-07T12:28:35.675Z,25.04
2018-11-07T12:31:04.421Z,25.07
2018-11-07T12:33:33.067Z,25.10
2018-11-07T12:36:01.705Z,25.29
2018-11-07T12:38:31.001Z,25.30
2018-11-07T12:40:59.688Z,25.28
2018-11-07T12:43:28.288Z,25.44
2018-11-07T12:45:57.027Z,25.67
2018-11-07T12:48:25.850Z,25.78
2018-11-07T12:50:54.649Z,25.89
2018-11-07T12:53:23.415Z,25.82
2018-11-07T12:55:52.762Z,25.72
2018-11-07T12:58:21.411Z,25.86
2018-11-07T13:00:49.841Z,25.69
2018-11-07T13:03:18.684Z,25.94
2018-11-07T13:05:47.435Z,26.13
2018-11-07T13:08:16.150Z,26.49
2018-11-07T13:10:44.775Z,26.56
2018-11-07T13:13:13.390Z,26.17
2018-11-07T13:15:42.035Z,25.62
2018-11-07T13:18:10.488Z,25.36
2018-11-07T13:20:39.163Z,24.46
2018-11-07T13:23:07.740Z,23.73
2018-11-07T13:25:36.246Z,23.37
2018-11-07T13:28:04.969Z,22.84
2018-11-07T13:30:33.506Z,22.28
2018-11-07T13:33:02.303Z,21.65
2018-11-07T13:35:30.973Z,21.11
2018-11-07T13:37:59.911Z,20.63
2018-11-07T13:40:28.542Z,20.23
2018-11-07T13:42:57.273Z,19.86
2018-11-07T13:45:26.081Z,19.57
2018-11-07T13:47:55.428Z,19.34
2018-11-07T13:50:23.950Z,19.21
2018-11-07T13:52:52.896Z,19.40
2018-11-07T13:55:21.416Z,20.27
2018-11-07T13:57:49.937Z,20.78
2018-11-07T14:00:20.018Z,20.61
2018-11-07T14:02:49.007Z,20.39
2018-11-07T14:05:17.797Z,20.14
2018-11-07T14:07:46.202Z,19.86
2018-11-07T14:10:23.149Z,19.59
2018-11-07T14:12:52.105Z,19.30
2018-11-07T14:15:20.712Z,19.03
2018-11-07T14:17:49.468Z,18.76
2018-11-07T14:20:18.025Z,18.56
2018-11-07T14:22:46.600Z,18.36
2018-11-07T14:25:15.425Z,18.16
2018-11-07T14:27:44.065Z,18.15
2018-11-07T14:30:15.695Z,18.36
2018-11-07T14:32:51.666Z,18.48
2018-11-07T14:35:20.532Z,18.62
2018-11-07T14:37:49.311Z,18.64
2018-11-07T14:40:17.773Z,18.65
2018-11-07T14:42:46.818Z,18.58
2018-11-07T14:45:15.455Z,18.42
2018-11-07T14:47:44.174Z,18.20
2018-11-07T14:50:13.342Z,17.94
2018-11-07T14:52:42.225Z,17.66
2018-11-07T14:55:11.886Z,17.38
2018-11-07T14:57:40.496Z,17.15
2018-11-07T15:00:11.645Z,16.93
2018-11-07T15:02:41.290Z,16.75
2018-11-07T15:05:11.251Z,16.55
2018-11-07T15:07:40.557Z,16.38
2018-11-07T15:10:11.430Z,16.22
2018-11-07T15:12:40.515Z,16.08
2018-11-07T15:15:11.711Z,15.94
2018-11-07T15:17:40.658Z,15.82
2018-11-07T15:20:10.731Z,15.68
2018-11-07T15:22:39.371Z,15.58
2018-11-07T15:25:09.233Z,15.48
2018-11-07T15:27:37.767Z,15.36
2018-11-07T15:31:37.718Z,15.25
2018-11-07T15:34:07.330Z,15.10
2018-11-07T15:36:36.213Z,15.00
2018-11-07T15:39:06.844Z,14.91
2018-11-07T15:41:35.798Z,14.86
2018-11-07T15:44:05.019Z,14.81
2018-11-07T15:46:33.893Z,14.75
2018-11-07T15:49:02.893Z,14.68
2018-11-07T15:51:36.562Z,14.62
2018-11-07T15:54:06.054Z,14.62
2018-11-07T15:56:35.056Z,14.55
2018-11-07T15:59:04.566Z,14.51
2018-11-07T16:01:34.002Z,14.42
2018-11-07T16:04:03.458Z,14.32
2018-11-07T16:06:32.302Z,14.25
2018-11-07T16:09:01.174Z,14.17
2018-11-07T16:11:30.813Z,14.08
2018-11-07T16:13:59.694Z,13.96
2018-11-07T16:16:28.607Z,13.87
2018-11-07T16:18:57.797Z,13.80
2018-11-07T16:21:27.066Z,13.73
2018-11-07T16:23:56.213Z,13.76
2018-11-07T16:26:25.760Z,13.82
2018-11-07T16:28:55.009Z,13.85
2018-11-07T16:32:28.075Z,13.88
2018-11-07T16:34:56.792Z,13.89
2018-11-07T16:37:25.678Z,13.84
2018-11-07T16:39:55.546Z,13.81
2018-11-07T16:42:24.357Z,13.89
2018-11-07T16:44:54.441Z,13.94
2018-11-07T16:47:23.146Z,14.01
2018-11-07T16:49:52.588Z,14.06
2018-11-07T16:52:21.772Z,14.06
2018-11-07T16:54:50.871Z,14.04
2018-11-07T16:57:19.878Z,14.06
2018-11-07T16:59:48.943Z,14.09
2018-11-07T17:02:17.836Z,14.11
2018-11-07T17:04:46.471Z,14.09
2018-11-07T17:07:15.323Z,14.11
2018-11-07T17:09:43.997Z,14.10
2018-11-07T17:12:12.898Z,14.08
2018-11-07T17:14:42.030Z,14.04
2018-11-07T17:17:11.201Z,14.02
2018-11-07T17:19:39.985Z,14.01
2018-11-07T17:22:09.070Z,14.03
2018-11-07T17:24:38.201Z,14.03
2018-11-07T17:27:07.032Z,14.04
2018-11-07T17:29:35.695Z,14.04
2018-11-07T17:32:05.054Z,14.05
2018-11-07T17:34:34.412Z,14.03
2018-11-07T17:37:03.443Z,14.03
2018-11-07T17:39:32.334Z,13.98
2018-11-07T17:42:01.088Z,13.97
2018-11-07T17:44:30.344Z,13.97
2018-11-07T17:46:59.540Z,13.92
2018-11-07T17:52:10.530Z,13.85
2018-11-07T17:54:40.426Z,13.78
2018-11-07T17:57:09.166Z,13.72
2018-11-07T17:59:38.454Z,13.66
2018-11-07T18:02:08.006Z,13.59
2018-11-07T18:04:37.097Z,13.53
2018-11-07T18:07:05.896Z,13.50
2018-11-07T18:09:34.788Z,13.46
2018-11-07T18:12:03.899Z,13.40
2018-11-07T18:14:32.725Z,13.32
2018-11-07T18:17:02.128Z,13.26
2018-11-07T18:19:30.735Z,13.24
2018-11-07T18:22:00.114Z,13.20
2018-11-07T18:24:28.572Z,13.19
2018-11-07T18:26:57.922Z,13.15
2018-11-07T18:29:26.806Z,13.14
2018-11-07T18:31:56.201Z,13.15
2018-11-07T18:34:24.801Z,13.19
2018-11-07T18:36:53.617Z,13.20
2018-11-07T18:39:22.157Z,13.18
2018-11-07T18:41:50.882Z,13.19
2018-11-07T18:44:19.565Z,13.23
2018-11-07T18:46:48.415Z,13.27
2018-11-07T18:49:17.253Z,13.36
2018-11-07T18:51:45.969Z,13.39
2018-11-07T18:54:15.415Z,13.44
2018-11-07T18:56:43.999Z,13.42
2018-11-07T18:59:12.636Z,13.42
2018-11-07T19:01:41.965Z,13.40
2018-11-07T19:04:10.676Z,13.33
2018-11-07T19:06:39.647Z,13.29
2018-11-07T19:09:09.902Z,13.24
2018-11-07T19:11:38.772Z,13.19
2018-11-07T19:14:07.678Z,13.13
2018-11-07T19:16:36.670Z,13.09
2018-11-07T19:19:05.569Z,13.08
2018-11-07T19:21:34.238Z,13.05
2018-11-07T19:24:03.209Z,13.04
2018-11-07T19:26:31.752Z,13.00
2018-11-07T19:29:01.104Z,12.96
2018-11-07T19:31:30.226Z,12.95
2018-11-07T19:33:59.001Z,12.92
2018-11-07T19:36:27.489Z,12.92
2018-11-07T19:38:56.046Z,12.90
2018-11-07T19:41:24.685Z,12.83
2018-11-07T19:43:53.174Z,12.78
2018-11-07T19:46:21.721Z,12.71
2018-11-07T19:48:50.263Z,12.61
2018-11-07T19:51:19.014Z,12.52
2018-11-07T19:53:49.620Z,12.42
2018-11-07T19:56:18.303Z,12.32
2018-11-07T19:58:48.735Z,12.24
2018-11-07T20:01:17.260Z,12.16
2018-11-07T20:03:45.766Z,12.11
2018-11-07T20:06:15.344Z,12.03
2018-11-07T20:08:43.897Z,11.91
2018-11-07T20:11:12.416Z,11.84
2018-11-07T20:13:40.918Z,11.83
2018-11-07T20:16:09.682Z,11.81
2018-11-07T20:18:39.106Z,11.73
2018-11-07T20:21:07.665Z,11.66
2018-11-07T20:23:36.175Z,11.61
2018-11-07T20:26:04.837Z,11.53
2018-11-07T20:28:33.507Z,11.45
2018-11-07T20:31:02.033Z,11.41
2018-11-07T20:33:30.649Z,11.39
2018-11-07T20:36:00.318Z,11.38
2018-11-07T20:38:28.675Z,11.37
2018-11-07T20:40:57.400Z,11.23
2018-11-07T20:43:25.986Z,11.23
2018-11-07T20:45:54.543Z,11.17
2018-11-07T20:48:23.158Z,11.13
2018-11-07T20:50:51.792Z,11.10
2018-11-07T20:53:20.282Z,11.07
2018-11-07T20:55:48.782Z,11.01
2018-11-07T20:58:17.397Z,11.00
2018-11-07T21:00:45.823Z,10.99
2018-11-07T21:03:14.422Z,10.95
2018-11-07T21:05:43.038Z,10.96
2018-11-07T21:08:11.661Z,10.93
2018-11-07T21:10:40.259Z,10.86
2018-11-07T21:13:08.848Z,10.77
2018-11-07T21:15:37.367Z,10.72
2018-11-07T21:18:06.036Z,10.70
2018-11-07T21:20:34.645Z,10.67
2018-11-07T21:23:03.316Z,10.63
2018-11-07T21:25:31.822Z,10.58
2018-11-07T21:28:00.409Z,10.55
2018-11-07T21:30:28.992Z,10.56
2018-11-07T21:32:57.685Z,10.60
2018-11-07T21:35:27.154Z,10.64
2018-11-07T21:37:55.907Z,10.68
2018-11-07T21:40:24.561Z,10.70
2018-11-07T21:42:53.165Z,10.74
2018-11-07T21:45:21.691Z,10.75
2018-11-07T21:47:50.788Z,10.77
2018-11-07T21:50:19.461Z,10.84
2018-11-07T21:52:47.999Z,10.90
2018-11-07T21:55:16.615Z,10.94
2018-11-07T21:57:45.413Z,10.98
2018-11-07T22:00:17.098Z,11.03
2018-11-07T22:02:46.301Z,11.09
2018-11-07T22:05:15.785Z,11.15
2018-11-07T22:07:44.577Z,11.19
2018-11-07T22:10:14.355Z,11.18
2018-11-07T22:12:42.888Z,11.15
2018-11-07T22:15:11.773Z,11.15
2018-11-07T22:17:40.524Z,11.18
2018-11-07T22:20:12.415Z,11.22
2018-11-07T22:22:41.048Z,11.19
2018-11-07T22:25:09.747Z,11.16
2018-11-07T22:27:38.334Z,11.13
2018-11-07T22:30:08.783Z,11.11
2018-11-07T22:32:37.748Z,11.03
2018-11-07T22:35:07.557Z,10.99
2018-11-07T22:37:36.082Z,10.94
2018-11-07T22:40:06.559Z,10.91
2018-11-07T22:42:37.025Z,10.89
2018-11-07T22:45:06.296Z,10.86
2018-11-07T22:47:35.456Z,10.83
2018-11-07T22:50:04.110Z,10.79
2018-11-07T22:52:32.775Z,10.76
2018-11-07T22:55:01.323Z,10.72
2018-11-07T22:57:30.011Z,10.73
2018-11-07T22:59:58.576Z,10.72
2018-11-07T23:02:27.188Z,10.72
2018-11-07T23:04:55.817Z,10.71
2018-11-07T23:07:24.251Z,10.71
2018-11-07T23:09:52.891Z,10.67
2018-11-07T23:12:21.466Z,10.62
2018-11-07T23:14:50.026Z,10.61
2018-11-07T23:17:18.619Z,10.59
2018-11-07T23:19:47.071Z,10.59
2018-11-07T23:22:15.827Z,10.58
2018-11-07T23:24:44.332Z,10.55
2018-11-07T23:27:12.915Z,10.53
2018-11-07T23:29:41.408Z,10.52
2018-11-07T23:32:10.864Z,10.51
2018-11-07T23:34:39.635Z,10.51
2018-11-07T23:37:08.352Z,10.49
2018-11-07T23:39:37.286Z,10.47
2018-11-07T23:42:05.873Z,10.43
2018-11-07T23:44:34.655Z,10.39
2018-11-07T23:47:03.145Z,10.37
2018-11-07T23:49:31.671Z,10.32
2018-11-07T23:52:00.401Z,10.31
2018-11-07T23:54:28.944Z,10.27
2018-11-07T23:56:57.545Z,10.23
2018-11-07T23:59:26.823Z,10.19
